»·PEaware :: BOE561 KSMF-KSNA

BOE561 :: KSMF-KSNA

FLIGHT INFORMATION

Flight Status: Arrived
Operator:
Boeing Commercial Airplane Group
More flights by this operator :: More flights under this callsign
Pilot: Ben F. (2808)
Aircraft: BOEING 737-200
(B732)
More flights by this aircraft type
Origin: KSMF Sacramento Intl
United States
Destination: KSNA John Wayne-Orange Co
United States
More flights between these airports :: More routes between these airports
Route: +CZQ V23 EHF FIM TANDY4
File this flight plan on PilotEdge
Remarks:
Altitude:
(Current/Filed)
31,000ft
Speed:
(Current/Filed)
436kts
Departed: 26-Apr-18 07:14 AM
Arrived: 26-Apr-18 08:30 AM
Distance/Time
Traveled:
351nm/1:16
Distance/Time
To Go:
Arrived

Flight Plot

Page will automatically refresh every two minutes.

Flight plan parsing failed; only flown route is shown


Map Options




Map Legend


Flown Route
Filed Route
Departure Airport
Arrival Airport
Navaid (VOR, NDB)
Fix

Horizontal Profiles

Position Reports

Time Latitude Longitude Heading Altitude Ground
Speed
26-Apr-18 06:55 38.681026 -121.596810 0 32ft 0kts
26-Apr-18 06:56 38.681026 -121.596810 0 32ft 0kts
26-Apr-18 06:57 38.681026 -121.596810 0 32ft 0kts
26-Apr-18 06:58 38.681026 -121.596810 0 32ft 0kts
26-Apr-18 06:59 38.681026 -121.596810 0 32ft 0kts
26-Apr-18 07:00 38.681026 -121.596810 0 32ft 0kts
26-Apr-18 07:01 38.681026 -121.596810 0 32ft 0kts
26-Apr-18 07:02 38.681026 -121.596810 0 32ft 0kts
26-Apr-18 07:03 38.681026 -121.596810 0 32ft 0kts
26-Apr-18 07:04 38.681026 -121.596810 0 32ft 0kts
26-Apr-18 07:05 38.681226 -121.596828 353 32ft 0kts
26-Apr-18 07:06 38.681688 -121.597659 269 32ft 0kts
26-Apr-18 07:07 38.681688 -121.597659 269 32ft 0kts
26-Apr-18 07:08 38.684017 -121.598807 339 32ft 13kts
26-Apr-18 07:09 38.690440 -121.598733 0 32ft 27kts
26-Apr-18 07:10 38.698112 -121.598619 2 32ft 27kts
26-Apr-18 07:11 38.705817 -121.598434 359 32ft 28kts
26-Apr-18 07:12 38.706355 -121.601102 179 32ft 9kts
26-Apr-18 07:13 38.691108 -121.601501 182 115ft 164kts
26-Apr-18 07:14 38.647160 -121.569131 132 2541ft 230kts
26-Apr-18 07:15 38.602838 -121.504262 133 5673ft 260kts
26-Apr-18 07:16 38.546330 -121.452669 143 8926ft 266kts
26-Apr-18 07:17 38.487687 -121.395742 144 11624ft 283kts
26-Apr-18 07:18 38.419403 -121.340313 149 13652ft 312kts
26-Apr-18 07:19 38.351513 -121.271476 142 15684ft 329kts
26-Apr-18 07:20 38.280622 -121.198984 143 17635ft 339kts
26-Apr-18 07:21 38.206800 -121.124038 142 19311ft 351kts
26-Apr-18 07:22 38.129867 -121.046169 142 20865ft 361kts
26-Apr-18 07:23 38.051595 -120.967188 142 22241ft 370kts
26-Apr-18 07:24 37.973613 -120.888709 142 23444ft 377kts
26-Apr-18 07:25 37.894800 -120.809633 143 24517ft 383kts
26-Apr-18 07:26 37.814541 -120.729342 143 25487ft 390kts
26-Apr-18 07:27 37.731074 -120.646083 143 26372ft 395kts
26-Apr-18 07:28 37.646235 -120.561702 143 27166ft 400kts
26-Apr-18 07:29 37.560212 -120.476403 143 27874ft 405kts
26-Apr-18 07:30 37.473949 -120.391123 143 28491ft 410kts
26-Apr-18 07:31 37.388071 -120.306475 144 29249ft 409kts
26-Apr-18 07:32 37.300212 -120.220147 144 29748ft 413kts
26-Apr-18 07:33 37.211458 -120.133186 144 30509ft 409kts
26-Apr-18 07:34 37.123139 -120.046944 144 31004ft 411kts
26-Apr-18 07:35 37.033510 -119.959687 145 31046ft 424kts
26-Apr-18 07:36 36.941702 -119.870604 145 31042ft 433kts
26-Apr-18 07:37 36.849408 -119.798476 159 31049ft 425kts
26-Apr-18 07:38 36.745911 -119.743012 160 31046ft 426kts
26-Apr-18 07:39 36.638961 -119.687229 160 31041ft 428kts
26-Apr-18 07:40 36.531832 -119.631654 160 31050ft 427kts
26-Apr-18 07:41 36.424376 -119.576074 160 31055ft 426kts
26-Apr-18 07:42 36.317344 -119.520869 160 31055ft 425kts
26-Apr-18 07:43 36.210285 -119.465820 160 31052ft 424kts
26-Apr-18 07:44 36.102755 -119.410690 160 31052ft 424kts
26-Apr-18 07:45 35.995356 -119.355790 160 31058ft 423kts
26-Apr-18 07:46 35.894010 -119.304143 160 31059ft 422kts
26-Apr-18 07:47 35.808735 -119.260772 160 30261ft 414kts
26-Apr-18 07:48 35.707595 -119.209495 160 27905ft 400kts
26-Apr-18 07:49 35.607174 -119.158723 159 25740ft 397kts
26-Apr-18 07:50 35.507875 -119.108640 159 24576ft 396kts
26-Apr-18 07:51 35.402169 -119.081395 171 24058ft 403kts
26-Apr-18 07:52 35.291067 -119.059619 172 24055ft 414kts
26-Apr-18 07:53 35.177315 -119.037736 172 24054ft 421kts
26-Apr-18 07:54 35.062111 -119.015665 172 24059ft 427kts
26-Apr-18 07:55 34.945301 -118.993303 172 24067ft 430kts
26-Apr-18 07:56 34.843993 -118.974027 173 24085ft 434kts
26-Apr-18 07:57 34.726064 -118.951656 173 24114ft 438kts
26-Apr-18 07:58 34.606558 -118.929021 173 24110ft 441kts
26-Apr-18 07:59 34.491182 -118.907203 173 24082ft 398kts
26-Apr-18 08:00 34.392471 -118.888636 173 22529ft 367kts
26-Apr-18 08:01 34.300555 -118.861025 165 20401ft 357kts
26-Apr-18 08:02 34.210596 -118.828315 164 18261ft 346kts
26-Apr-18 08:03 34.136671 -118.801268 163 16467ft 339kts
26-Apr-18 08:04 34.034286 -118.763772 162 14037ft 328kts
26-Apr-18 08:05 33.947353 -118.731417 162 14001ft 336kts
26-Apr-18 08:06 33.863305 -118.700544 163 13327ft 328kts
26-Apr-18 08:07 33.777107 -118.669540 162 11747ft 324kts
26-Apr-18 08:08 33.693752 -118.639723 163 10936ft 289kts
26-Apr-18 08:09 33.619359 -118.613288 163 9572ft 279kts
26-Apr-18 08:10 33.573530 -118.552021 81 8067ft 281kts
26-Apr-18 08:11 33.596155 -118.464094 72 6968ft 275kts
26-Apr-18 08:12 33.613930 -118.396267 72 6926ft 271kts
26-Apr-18 08:13 33.634514 -118.316525 73 6883ft 258kts
26-Apr-18 08:14 33.654627 -118.239128 72 6654ft 265kts
26-Apr-18 08:15 33.675515 -118.158018 72 5079ft 260kts
26-Apr-18 08:16 33.695241 -118.080733 72 4983ft 253kts
26-Apr-18 08:17 33.714224 -118.009363 58 4950ft 221kts
26-Apr-18 08:18 33.759097 -117.969883 31 4183ft 218kts
26-Apr-18 08:19 33.804093 -117.937238 31 3991ft 205kts
26-Apr-18 08:20 33.848637 -117.904762 31 3980ft 197kts
26-Apr-18 08:21 33.893361 -117.868638 56 3711ft 216kts
26-Apr-18 08:22 33.890172 -117.805386 109 2965ft 184kts
26-Apr-18 08:23 33.845971 -117.787706 162 2987ft 191kts
26-Apr-18 08:24 33.798585 -117.791343 205 2701ft 166kts
26-Apr-18 08:25 33.764137 -117.812779 206 1911ft 138kts
26-Apr-18 08:26 33.732201 -117.833011 205 1210ft 135kts
26-Apr-18 08:27 33.701304 -117.852954 206 523ft 130kts
26-Apr-18 08:28 33.673043 -117.870497 206 65ft 81kts
26-Apr-18 08:29 33.669620 -117.870386 39 65ft 14kts
26-Apr-18 08:30 33.672366 -117.867846 62 65ft 8kts
26-Apr-18 08:31 33.671881 -117.867066 208 65ft 0kts

Navigation Log

Ident Type
Flight plan parsing failed, navigation log unavailable